sensor_id;sensor_type;location;lat;lon;timestamp;pressure;altitude;pressure_sealevel;temperature
62706;BMP280;51050;51.784;9.372;2022-09-09T00:00:17;99823.56;;;13.83
62706;BMP280;51050;51.784;9.372;2022-09-09T00:03:30;99833.44;;;13.84
62706;BMP280;51050;51.784;9.372;2022-09-09T00:07:54;99822.25;;;13.81
62706;BMP280;51050;51.784;9.372;2022-09-09T00:10:30;99813.88;;;13.86
62706;BMP280;51050;51.784;9.372;2022-09-09T00:16:10;99811.91;;;13.78
62706;BMP280;51050;51.784;9.372;2022-09-09T00:21:06;99805.72;;;13.72
62706;BMP280;51050;51.784;9.372;2022-09-09T00:23:37;99799.91;;;13.74
62706;BMP280;51050;51.784;9.372;2022-09-09T00:28:38;99796.84;;;13.75
62706;BMP280;51050;51.784;9.372;2022-09-09T00:31:16;99801.03;;;13.73
62706;BMP280;51050;51.784;9.372;2022-09-09T00:33:43;99794.19;;;13.61
62706;BMP280;51050;51.784;9.372;2022-09-09T00:36:12;99784.50;;;13.64
62706;BMP280;51050;51.784;9.372;2022-09-09T00:38:42;99786.94;;;13.66
62706;BMP280;51050;51.784;9.372;2022-09-09T00:41:13;99791.63;;;13.65
62706;BMP280;51050;51.784;9.372;2022-09-09T00:43:40;99789.38;;;13.67
62706;BMP280;51050;51.784;9.372;2022-09-09T00:46:09;99791.94;;;13.63
62706;BMP280;51050;51.784;9.372;2022-09-09T00:51:31;99797.63;;;13.67
62706;BMP280;51050;51.784;9.372;2022-09-09T00:56:46;99793.69;;;13.51
62706;BMP280;51050;51.784;9.372;2022-09-09T01:01:45;99793.38;;;13.61
62706;BMP280;51050;51.784;9.372;2022-09-09T01:04:16;99788.22;;;13.59
62706;BMP280;51050;51.784;9.372;2022-09-09T01:06:41;99791.34;;;13.75
62706;BMP280;51050;51.784;9.372;2022-09-09T01:14:05;99797.16;;;13.74
62706;BMP280;51050;51.784;9.372;2022-09-09T01:16:35;99806.22;;;13.74
62706;BMP280;51050;51.784;9.372;2022-09-09T01:19:01;99810.41;;;13.72
62706;BMP280;51050;51.784;9.372;2022-09-09T01:29:00;99819.66;;;13.76
62706;BMP280;51050;51.784;9.372;2022-09-09T01:31:31;99822.25;;;13.81
62706;BMP280;51050;51.784;9.372;2022-09-09T01:33:57;99820.34;;;13.90
62706;BMP280;51050;51.784;9.372;2022-09-09T01:38:50;99819.56;;;14.07
62706;BMP280;51050;51.784;9.372;2022-09-09T01:41:16;99823.16;;;14.07
62706;BMP280;51050;51.784;9.372;2022-09-09T01:43:41;99817.31;;;14.09
62706;BMP280;51050;51.784;9.372;2022-09-09T01:46:06;99818.44;;;14.08
62706;BMP280;51050;51.784;9.372;2022-09-09T01:48:33;99828.66;;;14.07
62706;BMP280;51050;51.784;9.372;2022-09-09T01:50:58;99822.81;;;14.09
62706;BMP280;51050;51.784;9.372;2022-09-09T01:53:24;99826.06;;;14.11
62706;BMP280;51050;51.784;9.372;2022-09-09T02:00:51;99826.88;;;14.11
62706;BMP280;51050;51.784;9.372;2022-09-09T02:03:22;99822.19;;;14.12
62706;BMP280;51050;51.784;9.372;2022-09-09T02:06:00;99823.31;;;14.11
62706;BMP280;51050;51.784;9.372;2022-09-09T02:11:07;99826.06;;;14.11
62706;BMP280;51050;51.784;9.372;2022-09-09T02:13:35;99819.56;;;14.07
62706;BMP280;51050;51.784;9.372;2022-09-09T02:16:08;99817.94;;;14.06
62706;BMP280;51050;51.784;9.372;2022-09-09T02:18:51;99817.13;;;14.05
62706;BMP280;51050;51.784;9.372;2022-09-09T02:21:19;99819.56;;;14.07
62706;BMP280;51050;51.784;9.372;2022-09-09T02:23:46;99828.13;;;13.96
62706;BMP280;51050;51.784;9.372;2022-09-09T02:26:12;99824.13;;;14.02
62706;BMP280;51050;51.784;9.372;2022-09-09T02:28:39;99817.81;;;14.02
62706;BMP280;51050;51.784;9.372;2022-09-09T02:31:05;99815.88;;;14.02
62706;BMP280;51050;51.784;9.372;2022-09-09T02:33:35;99811.47;;;14.01
62706;BMP280;51050;51.784;9.372;2022-09-09T02:36:02;99809.19;;;14.03
62706;BMP280;51050;51.784;9.372;2022-09-09T02:38:28;99807.59;;;14.02
62706;BMP280;51050;51.784;9.372;2022-09-09T02:40:55;99812.75;;;14.04
62706;BMP280;51050;51.784;9.372;2022-09-09T02:43:20;99811.94;;;14.03
62706;BMP280;51050;51.784;9.372;2022-09-09T02:45:48;99817.13;;;14.05
62706;BMP280;51050;51.784;9.372;2022-09-09T02:48:21;99810.81;;;14.05
62706;BMP280;51050;51.784;9.372;2022-09-09T02:50:54;99806.94;;;14.06
62706;BMP280;51050;51.784;9.372;2022-09-09T02:53:23;99810.19;;;14.08
62706;BMP280;51050;51.784;9.372;2022-09-09T02:55:54;99805.81;;;14.07
62706;BMP280;51050;51.784;9.372;2022-09-09T02:58:21;99800.00;;;14.08
62706;BMP280;51050;51.784;9.372;2022-09-09T03:00:47;99807.25;;;14.04
62706;BMP280;51050;51.784;9.372;2022-09-09T03:03:13;99805.97;;;14.01
62706;BMP280;51050;51.784;9.372;2022-09-09T03:05:38;99803.69;;;14.03
62706;BMP280;51050;51.784;9.372;2022-09-09T03:08:03;99816.31;;;14.05
62706;BMP280;51050;51.784;9.372;2022-09-09T03:10:30;99813.25;;;14.06
62706;BMP280;51050;51.784;9.372;2022-09-09T03:12:55;99827.34;;;14.05
62706;BMP280;51050;51.784;9.372;2022-09-09T03:15:20;99817.44;;;14.03
62706;BMP280;51050;51.784;9.372;2022-09-09T03:17:46;99824.13;;;14.02
62706;BMP280;51050;51.784;9.372;2022-09-09T03:20:12;99825.09;;;14.07
62706;BMP280;51050;51.784;9.372;2022-09-09T03:22:37;99829.78;;;14.06
62706;BMP280;51050;51.784;9.372;2022-09-09T03:25:02;99820.06;;;14.09
62706;BMP280;51050;51.784;9.372;2022-09-09T03:27:28;99821.69;;;14.10
62706;BMP280;51050;51.784;9.372;2022-09-09T03:29:53;99818.94;;;14.10
62706;BMP280;51050;51.784;9.372;2022-09-09T03:32:18;99820.88;;;14.09
62706;BMP280;51050;51.784;9.372;2022-09-09T03:34:47;99822.97;;;14.12
62706;BMP280;51050;51.784;9.372;2022-09-09T03:37:14;99816.03;;;14.15
62706;BMP280;51050;51.784;9.372;2022-09-09T03:39:40;99819.09;;;14.13
62706;BMP280;51050;51.784;9.372;2022-09-09T03:42:05;99811.19;;;14.12
62706;BMP280;51050;51.784;9.372;2022-09-09T03:44:30;99808.09;;;14.13
62706;BMP280;51050;51.784;9.372;2022-09-09T03:46:55;99808.91;;;14.14
62706;BMP280;51050;51.784;9.372;2022-09-09T03:49:21;99801.78;;;14.13
62706;BMP280;51050;51.784;9.372;2022-09-09T03:51:47;99802.13;;;14.11
62706;BMP280;51050;51.784;9.372;2022-09-09T03:54:12;99800.66;;;14.14
62706;BMP280;51050;51.784;9.372;2022-09-09T03:56:37;99792.25;;;14.10
62706;BMP280;51050;51.784;9.372;2022-09-09T03:59:03;99796.13;;;14.09
62706;BMP280;51050;51.784;9.372;2022-09-09T04:01:28;99783.66;;;14.12
62706;BMP280;51050;51.784;9.372;2022-09-09T04:03:54;99791.56;;;14.13
62706;BMP280;51050;51.784;9.372;2022-09-09T04:06:20;99797.09;;;14.13
62706;BMP280;51050;51.784;9.372;2022-09-09T04:08:46;99796.13;;;14.09
62706;BMP280;51050;51.784;9.372;2022-09-09T04:11:13;99802.44;;;14.10
62706;BMP280;51050;51.784;9.372;2022-09-09T04:13:38;99798.56;;;14.11
62706;BMP280;51050;51.784;9.372;2022-09-09T04:16:04;99794.69;;;14.12
62706;BMP280;51050;51.784;9.372;2022-09-09T04:18:29;99793.38;;;14.09
62706;BMP280;51050;51.784;9.372;2022-09-09T04:20:54;99796.94;;;14.10
62706;BMP280;51050;51.784;9.372;2022-09-09T04:23:22;99795.31;;;14.09
62706;BMP280;51050;51.784;9.372;2022-09-09T04:25:49;99805.00;;;14.06
62706;BMP280;51050;51.784;9.372;2022-09-09T04:28:15;99788.81;;;14.05
62706;BMP280;51050;51.784;9.372;2022-09-09T04:30:41;99796.44;;;14.08
62706;BMP280;51050;51.784;9.372;2022-09-09T04:33:07;99791.75;;;14.08
62706;BMP280;51050;51.784;9.372;2022-09-09T04:35:32;99801.94;;;14.08
62706;BMP280;51050;51.784;9.372;2022-09-09T04:37:58;99801.44;;;14.06
62706;BMP280;51050;51.784;9.372;2022-09-09T04:40:23;99814.88;;;14.07
62706;BMP280;51050;51.784;9.372;2022-09-09T04:42:48;99803.69;;;14.03
62706;BMP280;51050;51.784;9.372;2022-09-09T04:45:14;99814.38;;;14.05
62706;BMP280;51050;51.784;9.372;2022-09-09T04:47:39;99808.06;;;14.05
62706;BMP280;51050;51.784;9.372;2022-09-09T04:50:05;99812.75;;;14.04
62706;BMP280;51050;51.784;9.372;2022-09-09T04:52:30;99820.38;;;14.07
62706;BMP280;51050;51.784;9.372;2022-09-09T04:54:55;99815.88;;;14.11
62706;BMP280;51050;51.784;9.372;2022-09-09T04:57:20;99820.22;;;14.12
62706;BMP280;51050;51.784;9.372;2022-09-09T04:59:45;99819.91;;;14.14
62706;BMP280;51050;51.784;9.372;2022-09-09T05:02:10;99829.78;;;14.15
62706;BMP280;51050;51.784;9.372;2022-09-09T05:04:36;99828.66;;;14.16
62706;BMP280;51050;51.784;9.372;2022-09-09T05:07:01;99828.47;;;14.12
62706;BMP280;51050;51.784;9.372;2022-09-09T05:09:26;99827.50;;;14.08
62706;BMP280;51050;51.784;9.372;2022-09-09T05:11:51;99836.91;;;14.07
62706;BMP280;51050;51.784;9.372;2022-09-09T05:14:16;99829.47;;;14.08
62706;BMP280;51050;51.784;9.372;2022-09-09T05:16:42;99823.47;;;14.06
62706;BMP280;51050;51.784;9.372;2022-09-09T05:19:09;99832.84;;;14.05
62706;BMP280;51050;51.784;9.372;2022-09-09T05:21:34;99827.69;;;14.03
62706;BMP280;51050;51.784;9.372;2022-09-09T05:23:59;99830.09;;;14.05
62706;BMP280;51050;51.784;9.372;2022-09-09T05:26:25;99837.72;;;14.08
62706;BMP280;51050;51.784;9.372;2022-09-09T05:28:51;99837.72;;;14.08
62706;BMP280;51050;51.784;9.372;2022-09-09T05:31:16;99835.28;;;14.06
62706;BMP280;51050;51.784;9.372;2022-09-09T05:33:42;99843.22;;;14.08
62706;BMP280;51050;51.784;9.372;2022-09-09T05:36:09;99836.59;;;14.09
62706;BMP280;51050;51.784;9.372;2022-09-09T05:38:35;99840.16;;;14.09
62706;BMP280;51050;51.784;9.372;2022-09-09T05:41:01;99836.75;;;14.12
62706;BMP280;51050;51.784;9.372;2022-09-09T05:43:27;99850.06;;;14.19
62706;BMP280;51050;51.784;9.372;2022-09-09T05:46:01;99846.19;;;14.20
62706;BMP280;51050;51.784;9.372;2022-09-09T05:48:27;99843.75;;;14.18
62706;BMP280;51050;51.784;9.372;2022-09-09T05:50:53;99843.75;;;14.18
62706;BMP280;51050;51.784;9.372;2022-09-09T05:53:19;99848.13;;;14.28
62706;BMP280;51050;51.784;9.372;2022-09-09T05:55:44;99840.06;;;14.40
62706;BMP280;51050;51.784;9.372;2022-09-09T05:58:10;99839.59;;;14.47
62706;BMP280;51050;51.784;9.372;2022-09-09T06:00:35;99838.31;;;14.44
62706;BMP280;51050;51.784;9.372;2022-09-09T06:03:01;99832.63;;;14.49
62706;BMP280;51050;51.784;9.372;2022-09-09T06:05:26;99835.25;;;14.54
62706;BMP280;51050;51.784;9.372;2022-09-09T06:07:52;99831.50;;;14.59
62706;BMP280;51050;51.784;9.372;2022-09-09T06:10:18;99838.47;;;14.65
62706;BMP280;51050;51.784;9.372;2022-09-09T06:12:44;99825.19;;;14.67
62706;BMP280;51050;51.784;9.372;2022-09-09T06:15:09;99831.03;;;14.65
62706;BMP280;51050;51.784;9.372;2022-09-09T06:17:34;99831.03;;;14.65
62706;BMP280;51050;51.784;9.372;2022-09-09T06:19:59;99829.56;;;14.59
62706;BMP280;51050;51.784;9.372;2022-09-09T06:22:24;99832.81;;;14.53
62706;BMP280;51050;51.784;9.372;2022-09-09T06:24:49;99829.56;;;14.51
62706;BMP280;51050;51.784;9.372;2022-09-09T06:27:15;99830.22;;;14.56
62706;BMP280;51050;51.784;9.372;2022-09-09T06:29:41;99833.63;;;14.62
62706;BMP280;51050;51.784;9.372;2022-09-09T06:32:06;99833.47;;;14.67
62706;BMP280;51050;51.784;9.372;2022-09-09T06:34:33;99841.22;;;14.73
62706;BMP280;51050;51.784;9.372;2022-09-09T06:36:58;99841.91;;;14.79
62706;BMP280;51050;51.784;9.372;2022-09-09T06:39:23;99836.22;;;14.84
62706;BMP280;51050;51.784;9.372;2022-09-09T06:41:49;99828.25;;;14.91
62706;BMP280;51050;51.784;9.372;2022-09-09T06:44:14;99832.13;;;14.99
62706;BMP280;51050;51.784;9.372;2022-09-09T06:46:40;99836.03;;;15.06
62706;BMP280;51050;51.784;9.372;2022-09-09T06:49:05;99846.09;;;15.11
62706;BMP280;51050;51.784;9.372;2022-09-09T06:51:31;99839.25;;;15.17
62706;BMP280;51050;51.784;9.372;2022-09-09T06:53:58;99846.72;;;15.17
62706;BMP280;51050;51.784;9.372;2022-09-09T06:56:28;99839.56;;;15.15
62706;BMP280;51050;51.784;9.372;2022-09-09T06:58:54;99849.78;;;15.15
62706;BMP280;51050;51.784;9.372;2022-09-09T07:01:20;99844.44;;;15.19
62706;BMP280;51050;51.784;9.372;2022-09-09T07:03:49;99852.88;;;15.22
62706;BMP280;51050;51.784;9.372;2022-09-09T07:06:25;99855.28;;;15.32
62706;BMP280;51050;51.784;9.372;2022-09-09T07:08:51;99858.00;;;15.49
62706;BMP280;51050;51.784;9.372;2022-09-09T07:11:17;99850.38;;;15.46
62706;BMP280;51050;51.784;9.372;2022-09-09T07:13:42;99856.56;;;15.43
62706;BMP280;51050;51.784;9.372;2022-09-09T07:16:08;99850.06;;;15.57
62706;BMP280;51050;51.784;9.372;2022-09-09T07:18:34;99847.91;;;15.71
62706;BMP280;51050;51.784;9.372;2022-09-09T07:21:00;99855.00;;;15.80
62706;BMP280;51050;51.784;9.372;2022-09-09T07:23:26;99850.59;;;15.88
62706;BMP280;51050;51.784;9.372;2022-09-09T07:25:51;99854.13;;;15.97
62706;BMP280;51050;51.784;9.372;2022-09-09T07:28:17;99851.66;;;16.04
62706;BMP280;51050;51.784;9.372;2022-09-09T07:30:42;99859.94;;;16.04
62706;BMP280;51050;51.784;9.372;2022-09-09T07:33:08;99861.50;;;16.14
62706;BMP280;51050;51.784;9.372;2022-09-09T07:35:34;99854.31;;;16.21
62706;BMP280;51050;51.784;9.372;2022-09-09T07:38:00;99856.22;;;16.30
62706;BMP280;51050;51.784;9.372;2022-09-09T07:40:25;99855.09;;;16.31
62706;BMP280;51050;51.784;9.372;2022-09-09T07:42:51;99856.66;;;16.40
62706;BMP280;51050;51.784;9.372;2022-09-09T07:45:16;99854.22;;;16.39
62706;BMP280;51050;51.784;9.372;2022-09-09T07:47:41;99845.31;;;16.33
62706;BMP280;51050;51.784;9.372;2022-09-09T07:50:07;99852.50;;;16.25
62706;BMP280;51050;51.784;9.372;2022-09-09T07:52:33;99853.50;;;16.21
62706;BMP280;51050;51.784;9.372;2022-09-09T07:54:58;99857.75;;;16.18
62706;BMP280;51050;51.784;9.372;2022-09-09T07:57:24;99856.28;;;16.21
62706;BMP280;51050;51.784;9.372;2022-09-09T07:59:50;99859.19;;;16.24
62706;BMP280;51050;51.784;9.372;2022-09-09T08:02:15;99870.03;;;16.30
62706;BMP280;51050;51.784;9.372;2022-09-09T08:04:40;99860.13;;;16.28
62706;BMP280;51050;51.784;9.372;2022-09-09T08:07:05;99856.72;;;16.32
62706;BMP280;51050;51.784;9.372;2022-09-09T08:09:31;99844.91;;;16.43
62706;BMP280;51050;51.784;9.372;2022-09-09T08:11:57;99851.41;;;16.47
62706;BMP280;51050;51.784;9.372;2022-09-09T08:14:23;99845.53;;;16.49
62706;BMP280;51050;51.784;9.372;2022-09-09T08:16:48;99846.00;;;16.51
62706;BMP280;51050;51.784;9.372;2022-09-09T08:19:14;99851.00;;;16.57
62706;BMP280;51050;51.784;9.372;2022-09-09T08:21:43;99850.59;;;16.47
62706;BMP280;51050;51.784;9.372;2022-09-09T08:24:10;99850.16;;;16.36
62706;BMP280;51050;51.784;9.372;2022-09-09T08:26:42;99843.72;;;16.32
62706;BMP280;51050;51.784;9.372;2022-09-09T08:29:08;99845.44;;;16.37
62706;BMP280;51050;51.784;9.372;2022-09-09T08:31:36;99852.00;;;16.32
62706;BMP280;51050;51.784;9.372;2022-09-09T08:34:02;99855.91;;;16.31
62706;BMP280;51050;51.784;9.372;2022-09-09T08:36:28;99857.50;;;16.32
62706;BMP280;51050;51.784;9.372;2022-09-09T08:38:54;99861.22;;;16.36
62706;BMP280;51050;51.784;9.372;2022-09-09T08:46:28;99863.75;;;16.50
62706;BMP280;51050;51.784;9.372;2022-09-09T08:48:58;99858.81;;;16.55
62706;BMP280;51050;51.784;9.372;2022-09-09T08:51:27;99872.63;;;16.55
62706;BMP280;51050;51.784;9.372;2022-09-09T08:53:53;99867.44;;;16.54
62706;BMP280;51050;51.784;9.372;2022-09-09T08:56:21;99867.22;;;16.59
62706;BMP280;51050;51.784;9.372;2022-09-09T08:58:49;99875.84;;;16.66
62706;BMP280;51050;51.784;9.372;2022-09-09T09:01:34;99870.59;;;16.73
62706;BMP280;51050;51.784;9.372;2022-09-09T09:04:18;99861.69;;;16.88
62706;BMP280;51050;51.784;9.372;2022-09-09T09:09:16;99874.31;;;17.10
62706;BMP280;51050;51.784;9.372;2022-09-09T09:11:44;99873.06;;;17.08
62706;BMP280;51050;51.784;9.372;2022-09-09T09:14:15;99874.06;;;17.24
62706;BMP280;51050;51.784;9.372;2022-09-09T09:16:47;99869.00;;;17.26
62706;BMP280;51050;51.784;9.372;2022-09-09T09:19:15;99873.97;;;17.32
62706;BMP280;51050;51.784;9.372;2022-09-09T09:21:42;99863.63;;;17.42
62706;BMP280;51050;51.784;9.372;2022-09-09T09:24:51;99865.50;;;17.50
62706;BMP280;51050;51.784;9.372;2022-09-09T09:26:57;99866.81;;;17.64
62706;BMP280;51050;51.784;9.372;2022-09-09T09:29:23;99861.41;;;17.80
62706;BMP280;51050;51.784;9.372;2022-09-09T09:31:56;99857.06;;;17.91
62706;BMP280;51050;51.784;9.372;2022-09-09T09:34:24;99855.78;;;18.01
62706;BMP280;51050;51.784;9.372;2022-09-09T09:36:54;99856.25;;;18.03
62706;BMP280;51050;51.784;9.372;2022-09-09T09:39:24;99861.34;;;18.01
62706;BMP280;51050;51.784;9.372;2022-09-09T09:41:50;99859.00;;;17.78
62706;BMP280;51050;51.784;9.372;2022-09-09T09:44:29;99856.31;;;17.70
62706;BMP280;51050;51.784;9.372;2022-09-09T09:49:32;99844.03;;;17.92
62706;BMP280;51050;51.784;9.372;2022-09-09T09:52:03;99849.78;;;17.99
62706;BMP280;51050;51.784;9.372;2022-09-09T09:54:29;99847.59;;;17.92
62706;BMP280;51050;51.784;9.372;2022-09-09T09:56:56;99847.81;;;17.75
62706;BMP280;51050;51.784;9.372;2022-09-09T09:59:24;99854.47;;;17.62
62706;BMP280;51050;51.784;9.372;2022-09-09T10:02:06;99850.03;;;17.49
62706;BMP280;51050;51.784;9.372;2022-09-09T10:04:33;99849.31;;;17.39
62706;BMP280;51050;51.784;9.372;2022-09-09T10:06:58;99850.34;;;17.35
62706;BMP280;51050;51.784;9.372;2022-09-09T10:09:28;99842.72;;;17.32
62706;BMP280;51050;51.784;9.372;2022-09-09T10:14:39;99850.56;;;17.30
62706;BMP280;51050;51.784;9.372;2022-09-09T10:22:50;99848.38;;;17.35
62706;BMP280;51050;51.784;9.372;2022-09-09T10:25:29;99859.44;;;17.35
62706;BMP280;51050;51.784;9.372;2022-09-09T10:38:03;99840.06;;;17.02
62706;BMP280;51050;51.784;9.372;2022-09-09T10:40:34;99842.09;;;16.93
62706;BMP280;51050;51.784;9.372;2022-09-09T10:45:42;99827.28;;;16.98
62706;BMP280;51050;51.784;9.372;2022-09-09T10:48:16;99833.97;;;16.97
62706;BMP280;51050;51.784;9.372;2022-09-09T10:50:56;99828.59;;;17.13
62706;BMP280;51050;51.784;9.372;2022-09-09T10:53:36;99831.25;;;17.42
62706;BMP280;51050;51.784;9.372;2022-09-09T10:56:08;99837.53;;;17.88
62706;BMP280;51050;51.784;9.372;2022-09-09T10:58:51;99833.63;;;18.13
62706;BMP280;51050;51.784;9.372;2022-09-09T11:01:28;99822.84;;;18.48
62706;BMP280;51050;51.784;9.372;2022-09-09T11:03:57;99819.84;;;18.53
62706;BMP280;51050;51.784;9.372;2022-09-09T11:06:35;99814.66;;;18.39
62706;BMP280;51050;51.784;9.372;2022-09-09T11:09:04;99824.84;;;18.35
62706;BMP280;51050;51.784;9.372;2022-09-09T11:11:35;99818.03;;;18.21
62706;BMP280;51050;51.784;9.372;2022-09-09T11:14:48;99829.13;;;17.96
62706;BMP280;51050;51.784;9.372;2022-09-09T11:16:49;99828.41;;;17.63
62706;BMP280;51050;51.784;9.372;2022-09-09T11:19:25;99825.00;;;17.45
62706;BMP280;51050;51.784;9.372;2022-09-09T11:21:53;99823.28;;;17.40
62706;BMP280;51050;51.784;9.372;2022-09-09T11:24:23;99828.22;;;17.35
62706;BMP280;51050;51.784;9.372;2022-09-09T11:29:35;99830.09;;;17.55
62706;BMP280;51050;51.784;9.372;2022-09-09T11:35:14;99830.59;;;17.69
62706;BMP280;51050;51.784;9.372;2022-09-09T11:37:59;99841.22;;;17.67
62706;BMP280;51050;51.784;9.372;2022-09-09T11:40:30;99844.91;;;17.71
62706;BMP280;51050;51.784;9.372;2022-09-09T11:45:28;99860.50;;;17.88
62706;BMP280;51050;51.784;9.372;2022-09-09T11:47:58;99844.25;;;18.11
62706;BMP280;51050;51.784;9.372;2022-09-09T11:52:49;99840.88;;;18.54
62706;BMP280;51050;51.784;9.372;2022-09-09T11:55:28;99834.72;;;18.73
62706;BMP280;51050;51.784;9.372;2022-09-09T11:58:02;99823.44;;;18.94
62706;BMP280;51050;51.784;9.372;2022-09-09T12:00:31;99823.28;;;19.02
62706;BMP280;51050;51.784;9.372;2022-09-09T12:02:57;99825.56;;;19.12
62706;BMP280;51050;51.784;9.372;2022-09-09T12:05:23;99813.94;;;19.22
62706;BMP280;51050;51.784;9.372;2022-09-09T12:08:00;99822.09;;;19.31
62706;BMP280;51050;51.784;9.372;2022-09-09T12:10:28;99807.06;;;19.32
62706;BMP280;51050;51.784;9.372;2022-09-09T12:12:54;99803.59;;;19.35
62706;BMP280;51050;51.784;9.372;2022-09-09T12:15:23;99802.88;;;19.38
62706;BMP280;51050;51.784;9.372;2022-09-09T12:17:50;99806.47;;;19.39
62706;BMP280;51050;51.784;9.372;2022-09-09T12:23:03;99791.66;;;19.35
62706;BMP280;51050;51.784;9.372;2022-09-09T12:25:38;99804.84;;;19.38
62706;BMP280;51050;51.784;9.372;2022-09-09T12:28:20;99802.25;;;19.45
62706;BMP280;51050;51.784;9.372;2022-09-09T12:30:52;99797.72;;;19.52
62706;BMP280;51050;51.784;9.372;2022-09-09T12:33:21;99796.09;;;19.67
62706;BMP280;51050;51.784;9.372;2022-09-09T12:35:49;99811.06;;;19.94
62706;BMP280;51050;51.784;9.372;2022-09-09T12:38:20;99810.69;;;20.11
62706;BMP280;51050;51.784;9.372;2022-09-09T12:40:56;99796.69;;;20.08
62706;BMP280;51050;51.784;9.372;2022-09-09T12:43:22;99787.97;;;20.25
62706;BMP280;51050;51.784;9.372;2022-09-09T12:45:48;99785.25;;;20.44
62706;BMP280;51050;51.784;9.372;2022-09-09T12:48:16;99776.84;;;20.41
62706;BMP280;51050;51.784;9.372;2022-09-09T12:50:44;99775.31;;;20.43
62706;BMP280;51050;51.784;9.372;2022-09-09T12:53:12;99776.66;;;20.49
62706;BMP280;51050;51.784;9.372;2022-09-09T12:55:48;99777.25;;;20.58
62706;BMP280;51050;51.784;9.372;2022-09-09T12:58:13;99781.56;;;20.75
62706;BMP280;51050;51.784;9.372;2022-09-09T13:00:48;99775.75;;;21.03
62706;BMP280;51050;51.784;9.372;2022-09-09T13:03:20;99780.53;;;22.16
62706;BMP280;51050;51.784;9.372;2022-09-09T13:05:48;99778.78;;;21.36
62706;BMP280;51050;51.784;9.372;2022-09-09T13:08:14;99766.50;;;21.18
62706;BMP280;51050;51.784;9.372;2022-09-09T13:10:41;99777.81;;;20.67
62706;BMP280;51050;51.784;9.372;2022-09-09T13:13:15;99769.75;;;20.27
62706;BMP280;51050;51.784;9.372;2022-09-09T13:15:47;99771.16;;;20.02
62706;BMP280;51050;51.784;9.372;2022-09-09T13:18:13;99778.38;;;19.87
62706;BMP280;51050;51.784;9.372;2022-09-09T13:20:39;99763.41;;;19.76
62706;BMP280;51050;51.784;9.372;2022-09-09T13:23:04;99778.00;;;19.89
62706;BMP280;51050;51.784;9.372;2022-09-09T13:25:29;99766.63;;;20.29
62706;BMP280;51050;51.784;9.372;2022-09-09T13:28:02;99757.56;;;20.32
62706;BMP280;51050;51.784;9.372;2022-09-09T13:30:31;99764.06;;;20.55
62706;BMP280;51050;51.784;9.372;2022-09-09T13:35:29;99753.13;;;20.85
62706;BMP280;51050;51.784;9.372;2022-09-09T13:37:55;99758.94;;;20.57
62706;BMP280;51050;51.784;9.372;2022-09-09T13:40:21;99747.03;;;20.22
62706;BMP280;51050;51.784;9.372;2022-09-09T13:42:54;99765.41;;;20.11
62706;BMP280;51050;51.784;9.372;2022-09-09T13:45:21;99770.00;;;20.03
62706;BMP280;51050;51.784;9.372;2022-09-09T13:47:46;99774.47;;;20.08
62706;BMP280;51050;51.784;9.372;2022-09-09T13:52:50;99773.50;;;20.16
62706;BMP280;51050;51.784;9.372;2022-09-09T13:55:18;99768.31;;;20.33
62706;BMP280;51050;51.784;9.372;2022-09-09T13:57:50;99773.56;;;20.54
62706;BMP280;51050;51.784;9.372;2022-09-09T14:00:15;99760.25;;;20.63
62706;BMP280;51050;51.784;9.372;2022-09-09T14:02:40;99766.84;;;20.74
62706;BMP280;51050;51.784;9.372;2022-09-09T14:05:06;99760.53;;;20.77
62706;BMP280;51050;51.784;9.372;2022-09-09T14:07:31;99758.28;;;20.83
62706;BMP280;51050;51.784;9.372;2022-09-09T14:09:56;99763.69;;;20.76
62706;BMP280;51050;51.784;9.372;2022-09-09T14:12:22;99760.13;;;20.75
62706;BMP280;51050;51.784;9.372;2022-09-09T14:14:47;99762.09;;;20.75
62706;BMP280;51050;51.784;9.372;2022-09-09T14:17:12;99760.84;;;20.72
62706;BMP280;51050;51.784;9.372;2022-09-09T14:19:37;99763.75;;;20.80
62706;BMP280;51050;51.784;9.372;2022-09-09T14:22:02;99758.13;;;20.76
62706;BMP280;51050;51.784;9.372;2022-09-09T14:24:28;99761.41;;;20.62
62706;BMP280;51050;51.784;9.372;2022-09-09T14:26:53;99754.31;;;20.46
62706;BMP280;51050;51.784;9.372;2022-09-09T14:29:19;99739.38;;;20.34
62706;BMP280;51050;51.784;9.372;2022-09-09T14:31:44;99746.06;;;20.33
62706;BMP280;51050;51.784;9.372;2022-09-09T14:34:09;99743.22;;;20.30
62706;BMP280;51050;51.784;9.372;2022-09-09T14:36:35;99744.41;;;20.29
62706;BMP280;51050;51.784;9.372;2022-09-09T14:39:01;99749.44;;;20.23
62706;BMP280;51050;51.784;9.372;2022-09-09T14:41:26;99756.97;;;20.23
62706;BMP280;51050;51.784;9.372;2022-09-09T14:43:51;99758.34;;;20.67
62706;BMP280;51050;51.784;9.372;2022-09-09T14:46:18;99749.28;;;20.70
62706;BMP280;51050;51.784;9.372;2022-09-09T14:48:43;99742.25;;;20.57
62706;BMP280;51050;51.784;9.372;2022-09-09T14:51:17;99748.63;;;20.38
62706;BMP280;51050;51.784;9.372;2022-09-09T14:53:44;99749.16;;;20.28
62706;BMP280;51050;51.784;9.372;2022-09-09T14:56:10;99748.34;;;20.28
62706;BMP280;51050;51.784;9.372;2022-09-09T14:58:36;99740.91;;;20.32
62706;BMP280;51050;51.784;9.372;2022-09-09T15:01:06;99752.34;;;20.11
62706;BMP280;51050;51.784;9.372;2022-09-09T15:03:32;99746.16;;;20.02
62706;BMP280;51050;51.784;9.372;2022-09-09T15:05:58;99749.47;;;20.08
62706;BMP280;51050;51.784;9.372;2022-09-09T15:08:23;99751.25;;;20.16
62706;BMP280;51050;51.784;9.372;2022-09-09T15:10:48;99744.09;;;20.15
62706;BMP280;51050;51.784;9.372;2022-09-09T15:13:15;99744.34;;;20.10
62706;BMP280;51050;51.784;9.372;2022-09-09T15:15:41;99749.03;;;20.06
62706;BMP280;51050;51.784;9.372;2022-09-09T15:18:07;99752.19;;;20.04
62706;BMP280;51050;51.784;9.372;2022-09-09T15:20:32;99746.88;;;19.99
62706;BMP280;51050;51.784;9.372;2022-09-09T15:22:57;99746.88;;;19.99
62706;BMP280;51050;51.784;9.372;2022-09-09T15:25:22;99747.34;;;20.01
62706;BMP280;51050;51.784;9.372;2022-09-09T15:27:47;99754.50;;;20.02
62706;BMP280;51050;51.784;9.372;2022-09-09T15:30:13;99755.81;;;20.08
62706;BMP280;51050;51.784;9.372;2022-09-09T15:32:38;99762.19;;;20.09
62706;BMP280;51050;51.784;9.372;2022-09-09T15:35:04;99756.47;;;20.01
62706;BMP280;51050;51.784;9.372;2022-09-09T15:37:29;99759.19;;;19.98
62706;BMP280;51050;51.784;9.372;2022-09-09T15:39:54;99759.00;;;19.91
62706;BMP280;51050;51.784;9.372;2022-09-09T15:42:20;99755.00;;;19.88